sensor_id;sensor_type;location;lat;lon;timestamp;temperature;humidity
42085;DHT22;27746;52.228;20.890;2022-10-28T00:00:06;11.60;99.90
42085;DHT22;27746;52.228;20.890;2022-10-28T00:02:33;11.60;99.90
42085;DHT22;27746;52.228;20.890;2022-10-28T00:05:00;11.50;99.90
42085;DHT22;27746;52.228;20.890;2022-10-28T00:07:27;11.50;99.90
42085;DHT22;27746;52.228;20.890;2022-10-28T00:09:54;11.50;99.90
42085;DHT22;27746;52.228;20.890;2022-10-28T00:12:21;11.50;99.90
42085;DHT22;27746;52.228;20.890;2022-10-28T00:14:49;11.50;99.90
42085;DHT22;27746;52.228;20.890;2022-10-28T00:17:16;11.50;99.90
42085;DHT22;27746;52.228;20.890;2022-10-28T00:19:43;11.50;99.90
42085;DHT22;27746;52.228;20.890;2022-10-28T00:22:11;10.00;99.90
42085;DHT22;27746;52.228;20.890;2022-10-28T00:24:38;11.40;99.90
42085;DHT22;27746;52.228;20.890;2022-10-28T00:27:05;11.40;99.90
42085;DHT22;27746;52.228;20.890;2022-10-28T00:29:32;11.40;99.90
42085;DHT22;27746;52.228;20.890;2022-10-28T00:32:00;11.40;99.90
42085;DHT22;27746;52.228;20.890;2022-10-28T00:34:28;11.30;99.90
42085;DHT22;27746;52.228;20.890;2022-10-28T00:36:55;11.30;99.90
42085;DHT22;27746;52.228;20.890;2022-10-28T00:39:24;11.30;99.90
42085;DHT22;27746;52.228;20.890;2022-10-28T00:41:56;11.30;99.90
42085;DHT22;27746;52.228;20.890;2022-10-28T00:44:46;11.30;99.90
42085;DHT22;27746;52.228;20.890;2022-10-28T00:47:20;11.30;99.90
42085;DHT22;27746;52.228;20.890;2022-10-28T00:49:49;11.30;99.90
42085;DHT22;27746;52.228;20.890;2022-10-28T00:52:19;11.20;99.90
42085;DHT22;27746;52.228;20.890;2022-10-28T00:54:48;11.20;99.90
42085;DHT22;27746;52.228;20.890;2022-10-28T00:57:18;11.20;99.90
42085;DHT22;27746;52.228;20.890;2022-10-28T00:59:48;11.20;99.90
42085;DHT22;27746;52.228;20.890;2022-10-28T01:02:17;11.20;99.90
42085;DHT22;27746;52.228;20.890;2022-10-28T01:04:45;11.10;99.90
42085;DHT22;27746;52.228;20.890;2022-10-28T01:07:13;11.10;99.90
42085;DHT22;27746;52.228;20.890;2022-10-28T01:09:40;11.00;99.90
42085;DHT22;27746;52.228;20.890;2022-10-28T01:12:15;11.00;99.90
42085;DHT22;27746;52.228;20.890;2022-10-28T01:14:58;10.90;99.90
42085;DHT22;27746;52.228;20.890;2022-10-28T01:17:41;11.00;99.90
42085;DHT22;27746;52.228;20.890;2022-10-28T01:20:44;10.90;99.90
42085;DHT22;27746;52.228;20.890;2022-10-28T01:23:18;10.90;99.90
42085;DHT22;27746;52.228;20.890;2022-10-28T01:29:25;10.70;99.90
42085;DHT22;27746;52.228;20.890;2022-10-28T01:32:00;10.70;99.90
42085;DHT22;27746;52.228;20.890;2022-10-28T01:34:32;10.70;99.90
42085;DHT22;27746;52.228;20.890;2022-10-28T01:37:09;10.60;99.90
42085;DHT22;27746;52.228;20.890;2022-10-28T01:39:44;10.60;99.90
42085;DHT22;27746;52.228;20.890;2022-10-28T01:42:19;10.50;99.90
42085;DHT22;27746;52.228;20.890;2022-10-28T01:44:54;10.50;99.90
42085;DHT22;27746;52.228;20.890;2022-10-28T01:47:27;10.40;99.90
42085;DHT22;27746;52.228;20.890;2022-10-28T01:49:59;10.40;99.90
42085;DHT22;27746;52.228;20.890;2022-10-28T01:52:29;10.40;99.90
42085;DHT22;27746;52.228;20.890;2022-10-28T01:55:01;10.40;99.90
42085;DHT22;27746;52.228;20.890;2022-10-28T01:57:29;10.40;99.90
42085;DHT22;27746;52.228;20.890;2022-10-28T01:59:57;10.30;99.90
42085;DHT22;27746;52.228;20.890;2022-10-28T02:02:30;10.30;99.90
42085;DHT22;27746;52.228;20.890;2022-10-28T02:05:05;10.40;99.90
42085;DHT22;27746;52.228;20.890;2022-10-28T02:07:32;10.40;99.90
42085;DHT22;27746;52.228;20.890;2022-10-28T02:10:05;10.40;99.90
42085;DHT22;27746;52.228;20.890;2022-10-28T02:12:36;10.40;99.90
42085;DHT22;27746;52.228;20.890;2022-10-28T02:15:22;10.40;99.90
42085;DHT22;27746;52.228;20.890;2022-10-28T02:18:05;10.40;99.90
42085;DHT22;27746;52.228;20.890;2022-10-28T02:20:42;10.40;99.90
42085;DHT22;27746;52.228;20.890;2022-10-28T02:23:18;10.40;99.90
42085;DHT22;27746;52.228;20.890;2022-10-28T02:25:53;12.90;99.90
42085;DHT22;27746;52.228;20.890;2022-10-28T02:28:23;10.30;99.90
42085;DHT22;27746;52.228;20.890;2022-10-28T02:30:56;10.20;99.90
42085;DHT22;27746;52.228;20.890;2022-10-28T02:33:28;10.20;99.90
42085;DHT22;27746;52.228;20.890;2022-10-28T02:36:00;10.20;99.90
42085;DHT22;27746;52.228;20.890;2022-10-28T02:38:32;10.20;99.90
42085;DHT22;27746;52.228;20.890;2022-10-28T02:41:05;10.20;99.90
42085;DHT22;27746;52.228;20.890;2022-10-28T02:43:35;10.10;99.90
42085;DHT22;27746;52.228;20.890;2022-10-28T02:46:04;10.10;99.90
42085;DHT22;27746;52.228;20.890;2022-10-28T02:48:36;10.10;99.90
42085;DHT22;27746;52.228;20.890;2022-10-28T02:51:08;10.10;99.90
42085;DHT22;27746;52.228;20.890;2022-10-28T02:53:44;10.10;99.90
42085;DHT22;27746;52.228;20.890;2022-10-28T02:56:14;10.10;99.90
42085;DHT22;27746;52.228;20.890;2022-10-28T02:58:44;10.00;99.90
42085;DHT22;27746;52.228;20.890;2022-10-28T03:01:11;10.10;99.90
42085;DHT22;27746;52.228;20.890;2022-10-28T03:03:39;10.10;99.90
42085;DHT22;27746;52.228;20.890;2022-10-28T03:06:07;10.10;99.90
42085;DHT22;27746;52.228;20.890;2022-10-28T03:08:34;10.10;99.90
42085;DHT22;27746;52.228;20.890;2022-10-28T03:11:01;10.10;99.90
42085;DHT22;27746;52.228;20.890;2022-10-28T03:13:28;10.00;99.90
42085;DHT22;27746;52.228;20.890;2022-10-28T03:15:55;10.10;99.90
42085;DHT22;27746;52.228;20.890;2022-10-28T03:18:22;10.00;99.90
42085;DHT22;27746;52.228;20.890;2022-10-28T03:20:50;10.00;99.90
42085;DHT22;27746;52.228;20.890;2022-10-28T03:23:17;10.00;99.90
42085;DHT22;27746;52.228;20.890;2022-10-28T03:25:44;10.00;99.90
42085;DHT22;27746;52.228;20.890;2022-10-28T03:28:10;10.10;99.90
42085;DHT22;27746;52.228;20.890;2022-10-28T03:30:37;10.00;99.90
42085;DHT22;27746;52.228;20.890;2022-10-28T03:33:04;10.10;99.90
42085;DHT22;27746;52.228;20.890;2022-10-28T03:35:31;10.10;99.90
42085;DHT22;27746;52.228;20.890;2022-10-28T03:37:59;10.00;99.90
42085;DHT22;27746;52.228;20.890;2022-10-28T03:40:26;10.10;99.90
42085;DHT22;27746;52.228;20.890;2022-10-28T03:42:53;10.10;99.90
42085;DHT22;27746;52.228;20.890;2022-10-28T03:45:20;10.10;99.90
42085;DHT22;27746;52.228;20.890;2022-10-28T03:47:47;10.10;99.90
42085;DHT22;27746;52.228;20.890;2022-10-28T03:50:14;12.10;99.90
42085;DHT22;27746;52.228;20.890;2022-10-28T03:52:41;10.10;99.90
42085;DHT22;27746;52.228;20.890;2022-10-28T03:55:10;10.10;99.90
42085;DHT22;27746;52.228;20.890;2022-10-28T03:57:37;10.10;99.90
42085;DHT22;27746;52.228;20.890;2022-10-28T04:00:05;10.10;99.90
42085;DHT22;27746;52.228;20.890;2022-10-28T04:02:32;10.10;99.90
42085;DHT22;27746;52.228;20.890;2022-10-28T04:04:59;10.10;99.90
42085;DHT22;27746;52.228;20.890;2022-10-28T04:07:26;10.10;99.90
42085;DHT22;27746;52.228;20.890;2022-10-28T04:09:54;10.00;99.90
42085;DHT22;27746;52.228;20.890;2022-10-28T04:12:23;10.00;99.90
42085;DHT22;27746;52.228;20.890;2022-10-28T04:14:50;9.90;99.90
42085;DHT22;27746;52.228;20.890;2022-10-28T04:17:18;9.90;99.90
42085;DHT22;27746;52.228;20.890;2022-10-28T04:19:44;9.90;99.90
42085;DHT22;27746;52.228;20.890;2022-10-28T04:22:11;9.90;99.90
42085;DHT22;27746;52.228;20.890;2022-10-28T04:24:38;9.80;99.90
42085;DHT22;27746;52.228;20.890;2022-10-28T04:27:05;9.80;99.90
42085;DHT22;27746;52.228;20.890;2022-10-28T04:29:33;9.80;99.90
42085;DHT22;27746;52.228;20.890;2022-10-28T04:32:00;9.80;99.90
42085;DHT22;27746;52.228;20.890;2022-10-28T04:34:27;9.80;99.90
42085;DHT22;27746;52.228;20.890;2022-10-28T04:36:54;9.80;99.90
42085;DHT22;27746;52.228;20.890;2022-10-28T04:39:22;9.70;99.90
42085;DHT22;27746;52.228;20.890;2022-10-28T04:41:49;9.80;99.90
42085;DHT22;27746;52.228;20.890;2022-10-28T04:44:16;9.70;99.90
42085;DHT22;27746;52.228;20.890;2022-10-28T04:46:44;9.70;99.90
42085;DHT22;27746;52.228;20.890;2022-10-28T04:49:11;9.70;99.90
42085;DHT22;27746;52.228;20.890;2022-10-28T04:51:38;9.70;99.90
42085;DHT22;27746;52.228;20.890;2022-10-28T04:54:05;9.70;99.90
42085;DHT22;27746;52.228;20.890;2022-10-28T04:56:32;9.70;99.90
42085;DHT22;27746;52.228;20.890;2022-10-28T04:58:59;9.70;99.90
42085;DHT22;27746;52.228;20.890;2022-10-28T05:01:26;9.70;99.90
42085;DHT22;27746;52.228;20.890;2022-10-28T05:03:55;9.70;99.90
42085;DHT22;27746;52.228;20.890;2022-10-28T05:06:22;9.70;99.90
42085;DHT22;27746;52.228;20.890;2022-10-28T05:08:49;9.70;99.90
42085;DHT22;27746;52.228;20.890;2022-10-28T05:11:16;9.70;99.90
42085;DHT22;27746;52.228;20.890;2022-10-28T05:13:43;9.80;99.90
42085;DHT22;27746;52.228;20.890;2022-10-28T05:16:10;9.80;99.90
42085;DHT22;27746;52.228;20.890;2022-10-28T05:18:37;9.80;99.90
42085;DHT22;27746;52.228;20.890;2022-10-28T05:21:05;9.80;99.90
42085;DHT22;27746;52.228;20.890;2022-10-28T05:23:32;9.80;99.90
42085;DHT22;27746;52.228;20.890;2022-10-28T05:25:59;9.80;99.90
42085;DHT22;27746;52.228;20.890;2022-10-28T05:28:26;9.80;99.90
42085;DHT22;27746;52.228;20.890;2022-10-28T05:30:53;9.90;99.90
42085;DHT22;27746;52.228;20.890;2022-10-28T05:33:20;9.80;99.90
42085;DHT22;27746;52.228;20.890;2022-10-28T05:35:47;9.80;99.90
42085;DHT22;27746;52.228;20.890;2022-10-28T05:38:15;9.80;99.90
42085;DHT22;27746;52.228;20.890;2022-10-28T05:40:42;9.80;99.90
42085;DHT22;27746;52.228;20.890;2022-10-28T05:43:09;9.80;99.90
42085;DHT22;27746;52.228;20.890;2022-10-28T05:45:36;9.80;99.90
42085;DHT22;27746;52.228;20.890;2022-10-28T05:48:04;9.70;99.90
42085;DHT22;27746;52.228;20.890;2022-10-28T05:50:31;9.70;99.90
42085;DHT22;27746;52.228;20.890;2022-10-28T05:52:58;9.70;99.90
42085;DHT22;27746;52.228;20.890;2022-10-28T05:55:28;9.70;99.90
42085;DHT22;27746;52.228;20.890;2022-10-28T05:57:56;9.70;99.90
42085;DHT22;27746;52.228;20.890;2022-10-28T06:00:24;9.70;99.90
42085;DHT22;27746;52.228;20.890;2022-10-28T06:03:00;9.80;99.90
42085;DHT22;27746;52.228;20.890;2022-10-28T06:05:28;9.80;99.90
42085;DHT22;27746;52.228;20.890;2022-10-28T06:07:55;9.80;99.90
42085;DHT22;27746;52.228;20.890;2022-10-28T06:10:22;9.80;99.90
42085;DHT22;27746;52.228;20.890;2022-10-28T06:12:50;9.90;99.90
42085;DHT22;27746;52.228;20.890;2022-10-28T06:15:17;9.90;99.90
42085;DHT22;27746;52.228;20.890;2022-10-28T06:17:46;10.00;99.90
42085;DHT22;27746;52.228;20.890;2022-10-28T06:20:14;10.00;99.90
42085;DHT22;27746;52.228;20.890;2022-10-28T06:22:46;10.10;99.90
42085;DHT22;27746;52.228;20.890;2022-10-28T06:25:14;10.20;99.90
42085;DHT22;27746;52.228;20.890;2022-10-28T06:27:41;10.20;99.90
42085;DHT22;27746;52.228;20.890;2022-10-28T06:30:10;10.30;99.90
42085;DHT22;27746;52.228;20.890;2022-10-28T06:32:37;10.30;99.90
42085;DHT22;27746;52.228;20.890;2022-10-28T06:35:04;10.40;99.90
42085;DHT22;27746;52.228;20.890;2022-10-28T06:37:31;10.40;99.90
42085;DHT22;27746;52.228;20.890;2022-10-28T06:39:58;10.40;99.90
42085;DHT22;27746;52.228;20.890;2022-10-28T06:42:25;10.50;99.90
42085;DHT22;27746;52.228;20.890;2022-10-28T06:44:52;10.60;99.90
42085;DHT22;27746;52.228;20.890;2022-10-28T06:47:21;10.60;99.90
42085;DHT22;27746;52.228;20.890;2022-10-28T06:49:48;10.80;99.90
42085;DHT22;27746;52.228;20.890;2022-10-28T06:52:15;10.90;99.90
42085;DHT22;27746;52.228;20.890;2022-10-28T06:54:42;10.90;99.90
42085;DHT22;27746;52.228;20.890;2022-10-28T06:57:09;11.10;99.90
42085;DHT22;27746;52.228;20.890;2022-10-28T06:59:36;11.30;99.90
42085;DHT22;27746;52.228;20.890;2022-10-28T07:02:03;11.40;99.90
42085;DHT22;27746;52.228;20.890;2022-10-28T07:04:34;11.50;99.90
42085;DHT22;27746;52.228;20.890;2022-10-28T07:07:01;11.70;99.90
42085;DHT22;27746;52.228;20.890;2022-10-28T07:09:28;11.80;99.90
42085;DHT22;27746;52.228;20.890;2022-10-28T07:11:54;11.90;99.90
42085;DHT22;27746;52.228;20.890;2022-10-28T07:14:21;12.10;99.90
42085;DHT22;27746;52.228;20.890;2022-10-28T07:16:48;12.20;99.90
42085;DHT22;27746;52.228;20.890;2022-10-28T07:19:15;12.30;99.90
42085;DHT22;27746;52.228;20.890;2022-10-28T07:21:45;12.40;99.90
42085;DHT22;27746;52.228;20.890;2022-10-28T07:24:12;12.60;99.90
42085;DHT22;27746;52.228;20.890;2022-10-28T07:26:39;12.70;99.90
42085;DHT22;27746;52.228;20.890;2022-10-28T07:29:06;12.70;99.90
42085;DHT22;27746;52.228;20.890;2022-10-28T07:31:33;12.90;99.90
42085;DHT22;27746;52.228;20.890;2022-10-28T07:34:00;13.10;99.90
42085;DHT22;27746;52.228;20.890;2022-10-28T07:36:27;13.20;99.90
42085;DHT22;27746;52.228;20.890;2022-10-28T07:38:56;13.30;99.90
42085;DHT22;27746;52.228;20.890;2022-10-28T07:41:23;13.50;99.90
42085;DHT22;27746;52.228;20.890;2022-10-28T07:43:50;13.70;99.90
42085;DHT22;27746;52.228;20.890;2022-10-28T07:46:18;13.80;99.90
42085;DHT22;27746;52.228;20.890;2022-10-28T07:48:45;13.90;99.90
42085;DHT22;27746;52.228;20.890;2022-10-28T07:51:13;13.90;99.90
42085;DHT22;27746;52.228;20.890;2022-10-28T07:53:41;13.90;99.90
42085;DHT22;27746;52.228;20.890;2022-10-28T07:56:10;14.10;99.90
42085;DHT22;27746;52.228;20.890;2022-10-28T07:58:38;14.30;99.90
42085;DHT22;27746;52.228;20.890;2022-10-28T08:01:07;14.60;99.90
42085;DHT22;27746;52.228;20.890;2022-10-28T08:03:35;14.60;99.90
42085;DHT22;27746;52.228;20.890;2022-10-28T08:06:03;14.80;99.90
42085;DHT22;27746;52.228;20.890;2022-10-28T08:08:31;14.80;99.90
42085;DHT22;27746;52.228;20.890;2022-10-28T08:10:57;14.80;99.90
42085;DHT22;27746;52.228;20.890;2022-10-28T08:13:26;14.80;99.90
42085;DHT22;27746;52.228;20.890;2022-10-28T08:15:53;14.80;99.90
42085;DHT22;27746;52.228;20.890;2022-10-28T08:18:21;14.80;99.90
42085;DHT22;27746;52.228;20.890;2022-10-28T08:20:48;14.80;99.90
42085;DHT22;27746;52.228;20.890;2022-10-28T08:23:15;14.80;99.90
42085;DHT22;27746;52.228;20.890;2022-10-28T08:25:48;15.10;99.90
42085;DHT22;27746;52.228;20.890;2022-10-28T08:28:16;15.60;99.90
42085;DHT22;27746;52.228;20.890;2022-10-28T08:30:45;16.00;99.90
42085;DHT22;27746;52.228;20.890;2022-10-28T08:33:12;16.40;99.90
42085;DHT22;27746;52.228;20.890;2022-10-28T08:35:40;16.60;99.90
42085;DHT22;27746;52.228;20.890;2022-10-28T08:38:07;16.70;99.90
42085;DHT22;27746;52.228;20.890;2022-10-28T08:40:44;16.80;99.90
42085;DHT22;27746;52.228;20.890;2022-10-28T08:43:21;16.70;99.90
42085;DHT22;27746;52.228;20.890;2022-10-28T08:45:57;16.70;99.90
42085;DHT22;27746;52.228;20.890;2022-10-28T08:48:29;16.50;99.90
42085;DHT22;27746;52.228;20.890;2022-10-28T08:51:00;16.60;99.90
42085;DHT22;27746;52.228;20.890;2022-10-28T08:53:33;17.10;99.90
42085;DHT22;27746;52.228;20.890;2022-10-28T08:56:08;17.60;99.90
42085;DHT22;27746;52.228;20.890;2022-10-28T08:58:40;18.20;99.90
42085;DHT22;27746;52.228;20.890;2022-10-28T09:01:15;18.70;99.90
42085;DHT22;27746;52.228;20.890;2022-10-28T09:03:47;19.20;99.90
42085;DHT22;27746;52.228;20.890;2022-10-28T09:06:15;19.90;99.90
42085;DHT22;27746;52.228;20.890;2022-10-28T09:08:44;20.50;99.90
42085;DHT22;27746;52.228;20.890;2022-10-28T09:14:28;21.60;99.90
42085;DHT22;27746;52.228;20.890;2022-10-28T09:17:03;22.30;98.40
42085;DHT22;27746;52.228;20.890;2022-10-28T09:19:39;23.10;96.10
42085;DHT22;27746;52.228;20.890;2022-10-28T09:22:24;23.70;94.10
42085;DHT22;27746;52.228;20.890;2022-10-28T09:24:54;23.50;93.20
42085;DHT22;27746;52.228;20.890;2022-10-28T09:27:38;23.30;92.80
42085;DHT22;27746;52.228;20.890;2022-10-28T09:30:23;24.00;92.10
42085;DHT22;27746;52.228;20.890;2022-10-28T09:33:00;25.20;90.40
42085;DHT22;27746;52.228;20.890;2022-10-28T09:35:35;26.40;86.60
42085;DHT22;27746;52.228;20.890;2022-10-28T09:38:12;27.20;80.80
42085;DHT22;27746;52.228;20.890;2022-10-28T09:40:42;28.30;78.30
42085;DHT22;27746;52.228;20.890;2022-10-28T09:43:19;28.30;75.80
42085;DHT22;27746;52.228;20.890;2022-10-28T09:45:49;27.40;75.30
42085;DHT22;27746;52.228;20.890;2022-10-28T09:48:22;26.20;77.60
42085;DHT22;27746;52.228;20.890;2022-10-28T09:50:51;25.60;78.40
42085;DHT22;27746;52.228;20.890;2022-10-28T09:53:28;25.20;80.10
42085;DHT22;27746;52.228;20.890;2022-10-28T09:55:56;26.10;79.40
42085;DHT22;27746;52.228;20.890;2022-10-28T09:58:23;27.50;76.90
42085;DHT22;27746;52.228;20.890;2022-10-28T10:00:50;28.80;74.00
42085;DHT22;27746;52.228;20.890;2022-10-28T10:03:17;29.80;71.20
42085;DHT22;27746;52.228;20.890;2022-10-28T10:05:48;31.00;69.50
42085;DHT22;27746;52.228;20.890;2022-10-28T10:08:17;31.90;66.90
42085;DHT22;27746;52.228;20.890;2022-10-28T10:10:48;32.40;64.00
42085;DHT22;27746;52.228;20.890;2022-10-28T10:13:18;31.80;63.30
42085;DHT22;27746;52.228;20.890;2022-10-28T10:15:48;32.30;63.10
42085;DHT22;27746;52.228;20.890;2022-10-28T10:18:21;32.80;62.00
42085;DHT22;27746;52.228;20.890;2022-10-28T10:20:50;33.40;60.80
42085;DHT22;27746;52.228;20.890;2022-10-28T10:23:25;33.90;59.70
42085;DHT22;27746;52.228;20.890;2022-10-28T10:25:58;34.50;58.40
42085;DHT22;27746;52.228;20.890;2022-10-28T10:28:26;34.90;58.30
42085;DHT22;27746;52.228;20.890;2022-10-28T10:30:55;35.40;56.20
42085;DHT22;27746;52.228;20.890;2022-10-28T10:33:29;35.30;56.00
42085;DHT22;27746;52.228;20.890;2022-10-28T10:36:02;35.30;56.00
42085;DHT22;27746;52.228;20.890;2022-10-28T10:38:30;35.60;55.20
42085;DHT22;27746;52.228;20.890;2022-10-28T10:40:57;35.40;54.60
42085;DHT22;27746;52.228;20.890;2022-10-28T10:43:29;35.70;54.60
42085;DHT22;27746;52.228;20.890;2022-10-28T10:46:02;36.30;54.30
42085;DHT22;27746;52.228;20.890;2022-10-28T10:48:30;36.60;53.70
42085;DHT22;27746;52.228;20.890;2022-10-28T10:51:04;36.30;53.10
42085;DHT22;27746;52.228;20.890;2022-10-28T10:53:33;36.20;53.20
42085;DHT22;27746;52.228;20.890;2022-10-28T10:56:02;36.30;53.50
42085;DHT22;27746;52.228;20.890;2022-10-28T10:58:32;36.60;53.10
42085;DHT22;27746;52.228;20.890;2022-10-28T11:01:01;36.60;52.70
42085;DHT22;27746;52.228;20.890;2022-10-28T11:03:32;36.90;51.90
42085;DHT22;27746;52.228;20.890;2022-10-28T11:06:04;36.90;52.00
42085;DHT22;27746;52.228;20.890;2022-10-28T11:08:34;36.80;52.10
42085;DHT22;27746;52.228;20.890;2022-10-28T11:11:07;37.50;51.40
42085;DHT22;27746;52.228;20.890;2022-10-28T11:13:36;37.60;50.70
42085;DHT22;27746;52.228;20.890;2022-10-28T11:16:05;37.90;50.70
42085;DHT22;27746;52.228;20.890;2022-10-28T11:18:40;38.20;50.60
42085;DHT22;27746;52.228;20.890;2022-10-28T11:24:15;38.10;49.60
42085;DHT22;27746;52.228;20.890;2022-10-28T11:26:52;38.00;49.60
42085;DHT22;27746;52.228;20.890;2022-10-28T11:29:21;37.70;49.80
42085;DHT22;27746;52.228;20.890;2022-10-28T11:32:11;37.20;49.80
42085;DHT22;27746;52.228;20.890;2022-10-28T11:35:19;36.60;50.70
42085;DHT22;27746;52.228;20.890;2022-10-28T11:38:02;35.90;51.30
42085;DHT22;27746;52.228;20.890;2022-10-28T11:40:37;36.40;51.30
42085;DHT22;27746;52.228;20.890;2022-10-28T11:43:16;36.80;51.30
42085;DHT22;27746;52.228;20.890;2022-10-28T11:45:49;37.00;50.30
42085;DHT22;27746;52.228;20.890;2022-10-28T11:48:28;36.50;50.50
42085;DHT22;27746;52.228;20.890;2022-10-28T11:51:09;36.20;50.90
42085;DHT22;27746;52.228;20.890;2022-10-28T11:53:56;35.30;51.80
42085;DHT22;27746;52.228;20.890;2022-10-28T11:56:33;35.30;52.30
42085;DHT22;27746;52.228;20.890;2022-10-28T11:59:13;35.50;52.10
42085;DHT22;27746;52.228;20.890;2022-10-28T12:01:43;35.90;51.80
42085;DHT22;27746;52.228;20.890;2022-10-28T12:04:26;36.00;51.60
42085;DHT22;27746;52.228;20.890;2022-10-28T12:07:15;36.40;51.20
42085;DHT22;27746;52.228;20.890;2022-10-28T12:09:55;36.50;51.10
42085;DHT22;27746;52.228;20.890;2022-10-28T12:12:31;36.50;51.50
42085;DHT22;27746;52.228;20.890;2022-10-28T12:15:08;36.70;50.80
42085;DHT22;27746;52.228;20.890;2022-10-28T12:17:41;36.90;50.50
42085;DHT22;27746;52.228;20.890;2022-10-28T12:20:14;36.40;50.00
42085;DHT22;27746;52.228;20.890;2022-10-28T12:22:47;36.20;50.90
42085;DHT22;27746;52.228;20.890;2022-10-28T12:25:18;36.10;50.00
42085;DHT22;27746;52.228;20.890;2022-10-28T12:27:48;35.90;50.80
42085;DHT22;27746;52.228;20.890;2022-10-28T12:30:18;36.00;50.30
42085;DHT22;27746;52.228;20.890;2022-10-28T12:32:48;35.60;50.80
42085;DHT22;27746;52.228;20.890;2022-10-28T12:35:17;35.50;51.30
42085;DHT22;27746;52.228;20.890;2022-10-28T12:37:48;34.90;51.00
42085;DHT22;27746;52.228;20.890;2022-10-28T12:40:24;34.60;51.70
42085;DHT22;27746;52.228;20.890;2022-10-28T12:42:54;34.70;52.10
42085;DHT22;27746;52.228;20.890;2022-10-28T12:45:23;34.60;51.70
42085;DHT22;27746;52.228;20.890;2022-10-28T12:47:54;34.40;51.70
42085;DHT22;27746;52.228;20.890;2022-10-28T12:50:26;34.20;52.50
42085;DHT22;27746;52.228;20.890;2022-10-28T12:53:01;34.10;52.80
42085;DHT22;27746;52.228;20.890;2022-10-28T12:55:35;33.90;52.10
42085;DHT22;27746;52.228;20.890;2022-10-28T12:58:08;33.60;53.00
42085;DHT22;27746;52.228;20.890;2022-10-28T13:00:42;33.30;53.00
42085;DHT22;27746;52.228;20.890;2022-10-28T13:03:12;32.60;53.40
42085;DHT22;27746;52.228;20.890;2022-10-28T13:05:47;32.40;54.50
42085;DHT22;27746;52.228;20.890;2022-10-28T13:11:54;32.50;54.30
42085;DHT22;27746;52.228;20.890;2022-10-28T13:14:43;31.20;53.00
42085;DHT22;27746;52.228;20.890;2022-10-28T13:17:26;32.40;54.70
42085;DHT22;27746;52.228;20.890;2022-10-28T13:20:14;32.10;55.20
42085;DHT22;27746;52.228;20.890;2022-10-28T13:23:04;32.30;55.20
42085;DHT22;27746;52.228;20.890;2022-10-28T13:25:48;32.10;55.30
42085;DHT22;27746;52.228;20.890;2022-10-28T13:28:20;31.30;56.10
42085;DHT22;27746;52.228;20.890;2022-10-28T13:30:52;30.30;57.60
42085;DHT22;27746;52.228;20.890;2022-10-28T13:33:23;28.80;59.20
42085;DHT22;27746;52.228;20.890;2022-10-28T13:35:50;27.60;61.90
42085;DHT22;27746;52.228;20.890;2022-10-28T13:38:21;26.60;64.00
42085;DHT22;27746;52.228;20.890;2022-10-28T13:50:08;23.30;72.80
42085;DHT22;27746;52.228;20.890;2022-10-28T13:52:38;22.70;74.60
42085;DHT22;27746;52.228;20.890;2022-10-28T13:55:22;22.30;75.60
42085;DHT22;27746;52.228;20.890;2022-10-28T13:57:51;21.90;77.60
42085;DHT22;27746;52.228;20.890;2022-10-28T14:00:36;21.60;77.80
42085;DHT22;27746;52.228;20.890;2022-10-28T14:03:05;21.40;79.00
42085;DHT22;27746;52.228;20.890;2022-10-28T14:05:55;21.20;79.80
42085;DHT22;27746;52.228;20.890;2022-10-28T14:08:26;21.20;80.40
42085;DHT22;27746;52.228;20.890;2022-10-28T14:10:59;21.10;80.80
42085;DHT22;27746;52.228;20.890;2022-10-28T14:13:28;21.10;81.40
42085;DHT22;27746;52.228;20.890;2022-10-28T14:16:23;21.00;81.80
42085;DHT22;27746;52.228;20.890;2022-10-28T14:18:57;21.00;82.20
42085;DHT22;27746;52.228;20.890;2022-10-28T14:21:38;20.90;82.70
42085;DHT22;27746;52.228;20.890;2022-10-28T14:24:11;20.80;83.20
42085;DHT22;27746;52.228;20.890;2022-10-28T14:29:46;20.60;84.10
42085;DHT22;27746;52.228;20.890;2022-10-28T14:32:39;20.50;84.80
42085;DHT22;27746;52.228;20.890;2022-10-28T14:35:18;20.40;85.60
42085;DHT22;27746;52.228;20.890;2022-10-28T14:38:15;20.20;86.70
42085;DHT22;27746;52.228;20.890;2022-10-28T14:40:49;20.00;88.40
42085;DHT22;27746;52.228;20.890;2022-10-28T14:43:36;19.80;89.30
42085;DHT22;27746;52.228;20.890;2022-10-28T14:46:33;19.70;90.00
42085;DHT22;27746;52.228;20.890;2022-10-28T14:49:16;19.60;90.40
42085;DHT22;27746;52.228;20.890;2022-10-28T14:51:43;19.60;90.90
42085;DHT22;27746;52.228;20.890;2022-10-28T14:54:15;19.50;91.10
42085;DHT22;27746;52.228;20.890;2022-10-28T14:56:43;19.50;91.40
42085;DHT22;27746;52.228;20.890;2022-10-28T14:59:22;19.30;92.00
42085;DHT22;27746;52.228;20.890;2022-10-28T15:02:02;19.30;92.10
42085;DHT22;27746;52.228;20.890;2022-10-28T15:04:31;19.20;92.30
42085;DHT22;27746;52.228;20.890;2022-10-28T15:06:58;19.10;92.70
42085;DHT22;27746;52.228;20.890;2022-10-28T15:09:27;19.10;92.80
42085;DHT22;27746;52.228;20.890;2022-10-28T15:11:56;19.10;92.90
42085;DHT22;27746;52.228;20.890;2022-10-28T15:14:30;19.00;93.10
42085;DHT22;27746;52.228;20.890;2022-10-28T15:16:58;18.90;93.60
42085;DHT22;27746;52.228;20.890;2022-10-28T15:19:34;18.80;93.80
42085;DHT22;27746;52.228;20.890;2022-10-28T15:22:10;18.80;94.20
42085;DHT22;27746;52.228;20.890;2022-10-28T15:24:38;18.70;94.60
42085;DHT22;27746;52.228;20.890;2022-10-28T15:27:05;18.60;95.00
42085;DHT22;27746;52.228;20.890;2022-10-28T15:29:35;18.40;95.40
42085;DHT22;27746;52.228;20.890;2022-10-28T15:32:10;18.40;95.90
42085;DHT22;27746;52.228;20.890;2022-10-28T15:34:39;18.30;96.40
42085;DHT22;27746;52.228;20.890;2022-10-28T15:37:07;18.20;96.90
42085;DHT22;27746;52.228;20.890;2022-10-28T15:39:34;20.60;97.90
42085;DHT22;27746;52.228;20.890;2022-10-28T15:42:02;18.10;97.70
42085;DHT22;27746;52.228;20.890;2022-10-28T15:44:32;18.00;98.10
42085;DHT22;27746;52.228;20.890;2022-10-28T15:47:12;17.90;98.60
42085;DHT22;27746;52.228;20.890;2022-10-28T15:49:42;17.80;99.10
42085;DHT22;27746;52.228;20.890;2022-10-28T15:52:35;17.80;99.70
42085;DHT22;27746;52.228;20.890;2022-10-28T15:55:25;17.70;99.90
42085;DHT22;27746;52.228;20.890;2022-10-28T15:57:54;17.70;99.90
42085;DHT22;27746;52.228;20.890;2022-10-28T16:00:23;17.60;99.90
42085;DHT22;27746;52.228;20.890;2022-10-28T16:02:53;17.60;99.90
42085;DHT22;27746;52.228;20.890;2022-10-28T16:08:24;17.60;99.90
42085;DHT22;27746;52.228;20.890;2022-10-28T16:10:57;17.50;99.90